sensor_id;sensor_type;location;lat;lon;timestamp;temperature;humidity
52609;DHT22;38503;48.544;12.142;2022-11-28T00:01:40;2.10;99.90
52609;DHT22;38503;48.544;12.142;2022-11-28T00:04:09;2.10;99.90
52609;DHT22;38503;48.544;12.142;2022-11-28T00:06:42;2.20;99.90
52609;DHT22;38503;48.544;12.142;2022-11-28T00:09:12;2.20;99.90
52609;DHT22;38503;48.544;12.142;2022-11-28T00:11:41;2.20;99.90
52609;DHT22;38503;48.544;12.142;2022-11-28T00:14:08;2.20;99.90
52609;DHT22;38503;48.544;12.142;2022-11-28T00:16:36;2.20;99.90
52609;DHT22;38503;48.544;12.142;2022-11-28T00:19:04;2.30;99.90
52609;DHT22;38503;48.544;12.142;2022-11-28T00:21:31;2.30;99.90
52609;DHT22;38503;48.544;12.142;2022-11-28T00:23:59;2.20;99.90
52609;DHT22;38503;48.544;12.142;2022-11-28T00:26:38;2.20;99.90
52609;DHT22;38503;48.544;12.142;2022-11-28T00:29:07;2.30;99.90
52609;DHT22;38503;48.544;12.142;2022-11-28T00:31:37;2.30;99.90
52609;DHT22;38503;48.544;12.142;2022-11-28T00:34:13;2.30;99.90
52609;DHT22;38503;48.544;12.142;2022-11-28T00:36:42;2.30;99.90
52609;DHT22;38503;48.544;12.142;2022-11-28T00:39:09;2.30;99.90
52609;DHT22;38503;48.544;12.142;2022-11-28T00:41:36;2.30;99.90
52609;DHT22;38503;48.544;12.142;2022-11-28T00:44:03;2.30;99.90
52609;DHT22;38503;48.544;12.142;2022-11-28T00:46:30;2.30;99.90
52609;DHT22;38503;48.544;12.142;2022-11-28T00:48:58;2.30;99.90
52609;DHT22;38503;48.544;12.142;2022-11-28T00:51:28;2.30;99.90
52609;DHT22;38503;48.544;12.142;2022-11-28T00:53:57;2.20;99.90
52609;DHT22;38503;48.544;12.142;2022-11-28T00:56:27;2.30;99.90
52609;DHT22;38503;48.544;12.142;2022-11-28T00:58:55;2.20;99.90
52609;DHT22;38503;48.544;12.142;2022-11-28T01:01:33;2.30;99.90
52609;DHT22;38503;48.544;12.142;2022-11-28T01:04:04;2.30;99.90
52609;DHT22;38503;48.544;12.142;2022-11-28T01:06:33;2.30;99.90
52609;DHT22;38503;48.544;12.142;2022-11-28T01:09:04;2.30;99.90
52609;DHT22;38503;48.544;12.142;2022-11-28T01:11:31;2.30;99.90
52609;DHT22;38503;48.544;12.142;2022-11-28T01:14:00;2.30;99.90
52609;DHT22;38503;48.544;12.142;2022-11-28T01:16:27;2.30;99.90
52609;DHT22;38503;48.544;12.142;2022-11-28T01:18:54;2.40;99.90
52609;DHT22;38503;48.544;12.142;2022-11-28T01:21:21;2.30;99.90
52609;DHT22;38503;48.544;12.142;2022-11-28T01:23:48;2.30;99.90
52609;DHT22;38503;48.544;12.142;2022-11-28T01:26:17;2.40;99.90
52609;DHT22;38503;48.544;12.142;2022-11-28T01:28:48;2.40;99.90
52609;DHT22;38503;48.544;12.142;2022-11-28T01:31:17;2.40;99.90
52609;DHT22;38503;48.544;12.142;2022-11-28T01:33:45;2.40;99.90
52609;DHT22;38503;48.544;12.142;2022-11-28T01:36:13;2.40;99.90
52609;DHT22;38503;48.544;12.142;2022-11-28T01:38:40;2.40;99.90
52609;DHT22;38503;48.544;12.142;2022-11-28T01:41:07;2.40;99.90
52609;DHT22;38503;48.544;12.142;2022-11-28T01:43:35;2.40;99.90
52609;DHT22;38503;48.544;12.142;2022-11-28T01:46:04;2.40;99.90
52609;DHT22;38503;48.544;12.142;2022-11-28T01:48:39;2.40;99.90
52609;DHT22;38503;48.544;12.142;2022-11-28T01:51:08;2.40;99.90
52609;DHT22;38503;48.544;12.142;2022-11-28T01:53:38;2.40;99.90
52609;DHT22;38503;48.544;12.142;2022-11-28T01:56:24;2.40;99.90
52609;DHT22;38503;48.544;12.142;2022-11-28T01:58:56;2.50;99.90
52609;DHT22;38503;48.544;12.142;2022-11-28T02:01:24;2.40;99.90
52609;DHT22;38503;48.544;12.142;2022-11-28T02:03:52;2.50;99.90
52609;DHT22;38503;48.544;12.142;2022-11-28T02:06:22;2.50;99.90
52609;DHT22;38503;48.544;12.142;2022-11-28T02:08:51;2.50;99.90
52609;DHT22;38503;48.544;12.142;2022-11-28T02:11:38;2.50;99.90
52609;DHT22;38503;48.544;12.142;2022-11-28T02:14:37;2.50;99.90
52609;DHT22;38503;48.544;12.142;2022-11-28T02:37:06;2.40;99.90
52609;DHT22;38503;48.544;12.142;2022-11-28T02:44:41;2.40;99.90
52609;DHT22;38503;48.544;12.142;2022-11-28T02:47:40;2.40;99.90
52609;DHT22;38503;48.544;12.142;2022-11-28T02:50:12;2.40;99.90
52609;DHT22;38503;48.544;12.142;2022-11-28T02:52:55;2.40;99.90
52609;DHT22;38503;48.544;12.142;2022-11-28T02:55:24;2.40;99.90
52609;DHT22;38503;48.544;12.142;2022-11-28T02:57:53;2.40;99.90
52609;DHT22;38503;48.544;12.142;2022-11-28T03:00:30;2.40;99.90
52609;DHT22;38503;48.544;12.142;2022-11-28T03:12:07;2.40;99.90
52609;DHT22;38503;48.544;12.142;2022-11-28T03:17:18;2.40;99.90
52609;DHT22;38503;48.544;12.142;2022-11-28T03:25:27;2.50;99.90
52609;DHT22;38503;48.544;12.142;2022-11-28T03:30:57;2.50;99.90
52609;DHT22;38503;48.544;12.142;2022-11-28T03:33:29;2.40;99.90
52609;DHT22;38503;48.544;12.142;2022-11-28T03:36:08;2.50;99.90
52609;DHT22;38503;48.544;12.142;2022-11-28T03:38:40;2.40;99.90
52609;DHT22;38503;48.544;12.142;2022-11-28T03:41:17;2.40;99.90
52609;DHT22;38503;48.544;12.142;2022-11-28T03:43:53;2.40;99.90
52609;DHT22;38503;48.544;12.142;2022-11-28T03:46:26;2.40;99.90
52609;DHT22;38503;48.544;12.142;2022-11-28T03:48:57;2.40;99.90
52609;DHT22;38503;48.544;12.142;2022-11-28T03:51:36;2.40;99.90
52609;DHT22;38503;48.544;12.142;2022-11-28T03:54:07;2.40;99.90
52609;DHT22;38503;48.544;12.142;2022-11-28T03:56:50;2.40;99.90
52609;DHT22;38503;48.544;12.142;2022-11-28T03:59:30;2.40;99.90
52609;DHT22;38503;48.544;12.142;2022-11-28T04:10:19;2.50;99.90
52609;DHT22;38503;48.544;12.142;2022-11-28T04:18:24;2.40;99.90
52609;DHT22;38503;48.544;12.142;2022-11-28T04:21:13;2.40;99.90
52609;DHT22;38503;48.544;12.142;2022-11-28T04:23:42;2.40;99.90
52609;DHT22;38503;48.544;12.142;2022-11-28T04:26:13;2.40;99.90
52609;DHT22;38503;48.544;12.142;2022-11-28T04:28:45;2.40;99.90
52609;DHT22;38503;48.544;12.142;2022-11-28T04:31:15;2.40;99.90
52609;DHT22;38503;48.544;12.142;2022-11-28T04:33:47;2.40;99.90
52609;DHT22;38503;48.544;12.142;2022-11-28T04:36:18;2.40;99.90
52609;DHT22;38503;48.544;12.142;2022-11-28T04:38:46;2.30;99.90
52609;DHT22;38503;48.544;12.142;2022-11-28T04:41:46;2.40;99.90
52609;DHT22;38503;48.544;12.142;2022-11-28T04:44:27;2.40;99.90
52609;DHT22;38503;48.544;12.142;2022-11-28T04:46:56;2.40;99.90
52609;DHT22;38503;48.544;12.142;2022-11-28T04:49:24;2.50;99.90
52609;DHT22;38503;48.544;12.142;2022-11-28T04:55:06;2.40;99.90
52609;DHT22;38503;48.544;12.142;2022-11-28T05:00:07;2.40;99.90
52609;DHT22;38503;48.544;12.142;2022-11-28T05:02:35;2.40;99.90
52609;DHT22;38503;48.544;12.142;2022-11-28T05:05:20;2.40;99.90
52609;DHT22;38503;48.544;12.142;2022-11-28T05:07:47;2.30;99.90
52609;DHT22;38503;48.544;12.142;2022-11-28T05:10:16;2.40;99.90
52609;DHT22;38503;48.544;12.142;2022-11-28T05:12:43;2.30;99.90
52609;DHT22;38503;48.544;12.142;2022-11-28T05:15:11;2.70;99.90
52609;DHT22;38503;48.544;12.142;2022-11-28T05:17:37;2.30;99.90
52609;DHT22;38503;48.544;12.142;2022-11-28T05:20:08;2.40;99.90
52609;DHT22;38503;48.544;12.142;2022-11-28T05:22:35;2.30;99.90
52609;DHT22;38503;48.544;12.142;2022-11-28T05:25:02;2.40;99.90
52609;DHT22;38503;48.544;12.142;2022-11-28T05:27:29;2.40;99.90
52609;DHT22;38503;48.544;12.142;2022-11-28T05:29:59;2.40;99.90
52609;DHT22;38503;48.544;12.142;2022-11-28T05:32:28;2.30;99.90
52609;DHT22;38503;48.544;12.142;2022-11-28T05:34:56;2.40;99.90
52609;DHT22;38503;48.544;12.142;2022-11-28T05:37:24;2.30;99.90
52609;DHT22;38503;48.544;12.142;2022-11-28T05:39:51;2.30;99.90
52609;DHT22;38503;48.544;12.142;2022-11-28T05:42:18;2.30;99.90
52609;DHT22;38503;48.544;12.142;2022-11-28T05:44:45;2.30;99.90
52609;DHT22;38503;48.544;12.142;2022-11-28T05:47:13;2.30;99.90
52609;DHT22;38503;48.544;12.142;2022-11-28T05:49:45;2.30;99.90
52609;DHT22;38503;48.544;12.142;2022-11-28T05:52:12;2.30;99.90
52609;DHT22;38503;48.544;12.142;2022-11-28T05:54:39;2.30;99.90
52609;DHT22;38503;48.544;12.142;2022-11-28T05:57:06;2.20;99.90
52609;DHT22;38503;48.544;12.142;2022-11-28T05:59:33;2.30;99.90
52609;DHT22;38503;48.544;12.142;2022-11-28T06:02:00;2.20;99.90
52609;DHT22;38503;48.544;12.142;2022-11-28T06:04:27;2.30;99.90
52609;DHT22;38503;48.544;12.142;2022-11-28T06:06:54;2.30;99.90
52609;DHT22;38503;48.544;12.142;2022-11-28T06:09:21;2.30;99.90
52609;DHT22;38503;48.544;12.142;2022-11-28T06:11:51;2.30;99.90
52609;DHT22;38503;48.544;12.142;2022-11-28T06:14:18;2.30;99.90
52609;DHT22;38503;48.544;12.142;2022-11-28T06:16:45;2.30;99.90
52609;DHT22;38503;48.544;12.142;2022-11-28T06:19:12;2.40;99.90
52609;DHT22;38503;48.544;12.142;2022-11-28T06:21:39;2.30;99.90
52609;DHT22;38503;48.544;12.142;2022-11-28T06:24:08;2.30;99.90
52609;DHT22;38503;48.544;12.142;2022-11-28T06:26:35;2.40;99.90
52609;DHT22;38503;48.544;12.142;2022-11-28T06:29:02;2.30;99.90
52609;DHT22;38503;48.544;12.142;2022-11-28T06:31:29;2.30;99.90
52609;DHT22;38503;48.544;12.142;2022-11-28T06:33:57;2.30;99.90
52609;DHT22;38503;48.544;12.142;2022-11-28T06:36:24;2.20;99.90
52609;DHT22;38503;48.544;12.142;2022-11-28T06:38:52;2.20;99.90
52609;DHT22;38503;48.544;12.142;2022-11-28T06:41:20;2.20;99.90
52609;DHT22;38503;48.544;12.142;2022-11-28T06:43:48;2.20;99.90
52609;DHT22;38503;48.544;12.142;2022-11-28T06:46:18;2.20;99.90
52609;DHT22;38503;48.544;12.142;2022-11-28T06:48:49;2.20;99.90
52609;DHT22;38503;48.544;12.142;2022-11-28T06:51:16;2.20;99.90
52609;DHT22;38503;48.544;12.142;2022-11-28T06:53:44;2.30;99.90
52609;DHT22;38503;48.544;12.142;2022-11-28T06:56:16;2.30;99.90
52609;DHT22;38503;48.544;12.142;2022-11-28T06:58:44;2.30;99.90
52609;DHT22;38503;48.544;12.142;2022-11-28T07:01:17;2.40;99.90
52609;DHT22;38503;48.544;12.142;2022-11-28T07:03:44;2.40;99.90
52609;DHT22;38503;48.544;12.142;2022-11-28T07:06:12;2.40;99.90
52609;DHT22;38503;48.544;12.142;2022-11-28T07:08:40;2.40;99.90
52609;DHT22;38503;48.544;12.142;2022-11-28T07:13:34;2.50;99.90
52609;DHT22;38503;48.544;12.142;2022-11-28T07:16:01;2.50;99.90
52609;DHT22;38503;48.544;12.142;2022-11-28T07:18:28;2.50;99.90
52609;DHT22;38503;48.544;12.142;2022-11-28T07:20:55;2.50;99.90
52609;DHT22;38503;48.544;12.142;2022-11-28T07:23:22;2.40;99.90
52609;DHT22;38503;48.544;12.142;2022-11-28T07:26:15;2.40;99.90
52609;DHT22;38503;48.544;12.142;2022-11-28T07:28:43;2.40;99.90
52609;DHT22;38503;48.544;12.142;2022-11-28T07:31:16;2.50;99.90
52609;DHT22;38503;48.544;12.142;2022-11-28T07:33:45;2.50;99.90
52609;DHT22;38503;48.544;12.142;2022-11-28T07:36:15;2.50;99.90
52609;DHT22;38503;48.544;12.142;2022-11-28T07:38:48;2.50;99.90
52609;DHT22;38503;48.544;12.142;2022-11-28T07:41:17;2.40;99.90
52609;DHT22;38503;48.544;12.142;2022-11-28T07:43:56;2.50;99.90
52609;DHT22;38503;48.544;12.142;2022-11-28T07:46:25;2.50;99.90
52609;DHT22;38503;48.544;12.142;2022-11-28T07:48:52;2.50;99.90
52609;DHT22;38503;48.544;12.142;2022-11-28T07:51:25;2.60;99.90
52609;DHT22;38503;48.544;12.142;2022-11-28T07:53:52;2.60;99.90
52609;DHT22;38503;48.544;12.142;2022-11-28T07:56:22;2.70;99.90
52609;DHT22;38503;48.544;12.142;2022-11-28T07:58:49;2.70;99.90
52609;DHT22;38503;48.544;12.142;2022-11-28T08:01:22;2.80;99.90
52609;DHT22;38503;48.544;12.142;2022-11-28T08:03:50;2.70;99.90
52609;DHT22;38503;48.544;12.142;2022-11-28T08:06:20;2.80;99.90
52609;DHT22;38503;48.544;12.142;2022-11-28T08:08:47;2.90;99.90
52609;DHT22;38503;48.544;12.142;2022-11-28T08:11:16;3.00;99.90
52609;DHT22;38503;48.544;12.142;2022-11-28T08:13:44;2.90;99.90
52609;DHT22;38503;48.544;12.142;2022-11-28T08:16:13;2.90;99.90
52609;DHT22;38503;48.544;12.142;2022-11-28T08:18:41;3.00;99.90
52609;DHT22;38503;48.544;12.142;2022-11-28T08:21:23;3.00;99.90
52609;DHT22;38503;48.544;12.142;2022-11-28T08:23:52;2.90;99.90
52609;DHT22;38503;48.544;12.142;2022-11-28T08:26:22;3.00;99.90
52609;DHT22;38503;48.544;12.142;2022-11-28T08:28:56;3.10;99.90
52609;DHT22;38503;48.544;12.142;2022-11-28T08:31:26;3.10;99.90
52609;DHT22;38503;48.544;12.142;2022-11-28T08:33:55;3.10;99.90
52609;DHT22;38503;48.544;12.142;2022-11-28T08:36:22;3.20;99.90
52609;DHT22;38503;48.544;12.142;2022-11-28T08:38:49;3.20;99.90
52609;DHT22;38503;48.544;12.142;2022-11-28T08:41:36;3.40;99.90
52609;DHT22;38503;48.544;12.142;2022-11-28T08:44:03;3.40;99.90
52609;DHT22;38503;48.544;12.142;2022-11-28T08:46:30;3.30;99.90
52609;DHT22;38503;48.544;12.142;2022-11-28T08:48:58;3.40;99.90
52609;DHT22;38503;48.544;12.142;2022-11-28T08:51:30;3.50;99.90
52609;DHT22;38503;48.544;12.142;2022-11-28T08:53:57;3.70;99.90
52609;DHT22;38503;48.544;12.142;2022-11-28T08:56:26;3.80;99.90
52609;DHT22;38503;48.544;12.142;2022-11-28T08:58:53;3.70;99.90
52609;DHT22;38503;48.544;12.142;2022-11-28T09:01:23;3.80;99.90
52609;DHT22;38503;48.544;12.142;2022-11-28T09:03:50;3.80;99.90
52609;DHT22;38503;48.544;12.142;2022-11-28T09:06:18;3.90;99.90
52609;DHT22;38503;48.544;12.142;2022-11-28T09:08:47;3.90;99.90
52609;DHT22;38503;48.544;12.142;2022-11-28T09:11:17;4.00;99.90
52609;DHT22;38503;48.544;12.142;2022-11-28T09:13:45;4.00;99.90
52609;DHT22;38503;48.544;12.142;2022-11-28T09:16:12;4.00;99.90
52609;DHT22;38503;48.544;12.142;2022-11-28T09:18:40;4.10;99.90
52609;DHT22;38503;48.544;12.142;2022-11-28T09:21:09;4.20;99.90
52609;DHT22;38503;48.544;12.142;2022-11-28T09:23:37;4.10;99.90
52609;DHT22;38503;48.544;12.142;2022-11-28T09:26:09;4.20;99.90
52609;DHT22;38503;48.544;12.142;2022-11-28T09:28:36;4.30;99.90
52609;DHT22;38503;48.544;12.142;2022-11-28T09:31:04;4.40;99.90
52609;DHT22;38503;48.544;12.142;2022-11-28T09:33:32;4.40;99.90
52609;DHT22;38503;48.544;12.142;2022-11-28T09:36:04;4.30;99.90
52609;DHT22;38503;48.544;12.142;2022-11-28T09:38:31;4.40;99.90
52609;DHT22;38503;48.544;12.142;2022-11-28T09:41:00;4.40;99.90
52609;DHT22;38503;48.544;12.142;2022-11-28T09:43:35;4.30;99.90
52609;DHT22;38503;48.544;12.142;2022-11-28T09:46:05;4.30;99.90
52609;DHT22;38503;48.544;12.142;2022-11-28T09:48:40;4.30;99.90
52609;DHT22;38503;48.544;12.142;2022-11-28T09:54:37;4.20;99.90
52609;DHT22;38503;48.544;12.142;2022-11-28T09:57:25;4.20;99.90
52609;DHT22;38503;48.544;12.142;2022-11-28T09:59:55;4.10;99.90
52609;DHT22;38503;48.544;12.142;2022-11-28T10:02:27;4.00;99.90
52609;DHT22;38503;48.544;12.142;2022-11-28T10:05:03;4.00;99.90
52609;DHT22;38503;48.544;12.142;2022-11-28T10:13:20;4.20;99.90
52609;DHT22;38503;48.544;12.142;2022-11-28T10:16:10;4.40;99.90
52609;DHT22;38503;48.544;12.142;2022-11-28T10:19:02;4.60;99.90
52609;DHT22;38503;48.544;12.142;2022-11-28T10:21:35;4.60;99.90
52609;DHT22;38503;48.544;12.142;2022-11-28T10:24:12;4.60;99.90
52609;DHT22;38503;48.544;12.142;2022-11-28T10:26:45;4.90;99.90
52609;DHT22;38503;48.544;12.142;2022-11-28T10:29:32;4.60;99.90
52609;DHT22;38503;48.544;12.142;2022-11-28T10:32:04;4.60;99.90
52609;DHT22;38503;48.544;12.142;2022-11-28T10:34:40;4.70;99.90
52609;DHT22;38503;48.544;12.142;2022-11-28T10:37:34;4.80;99.90
52609;DHT22;38503;48.544;12.142;2022-11-28T10:52:11;5.30;99.90
52609;DHT22;38503;48.544;12.142;2022-11-28T10:55:18;5.30;99.90
52609;DHT22;38503;48.544;12.142;2022-11-28T11:00:33;5.30;99.90
52609;DHT22;38503;48.544;12.142;2022-11-28T11:03:02;5.50;99.90
52609;DHT22;38503;48.544;12.142;2022-11-28T11:05:34;5.70;99.90
52609;DHT22;38503;48.544;12.142;2022-11-28T11:10:45;5.80;99.90
52609;DHT22;38503;48.544;12.142;2022-11-28T11:13:29;5.60;99.90
52609;DHT22;38503;48.544;12.142;2022-11-28T11:16:02;5.40;99.90
52609;DHT22;38503;48.544;12.142;2022-11-28T11:18:31;5.30;99.90
52609;DHT22;38503;48.544;12.142;2022-11-28T11:21:26;5.20;99.90
52609;DHT22;38503;48.544;12.142;2022-11-28T11:24:14;5.40;99.90
52609;DHT22;38503;48.544;12.142;2022-11-28T11:26:46;5.40;99.90
52609;DHT22;38503;48.544;12.142;2022-11-28T11:29:33;5.60;99.90
52609;DHT22;38503;48.544;12.142;2022-11-28T11:32:02;5.70;99.90
52609;DHT22;38503;48.544;12.142;2022-11-28T11:34:37;5.70;99.90
52609;DHT22;38503;48.544;12.142;2022-11-28T11:39:54;6.10;99.90
52609;DHT22;38503;48.544;12.142;2022-11-28T11:42:24;6.30;99.90
52609;DHT22;38503;48.544;12.142;2022-11-28T11:44:53;6.60;99.90
52609;DHT22;38503;48.544;12.142;2022-11-28T11:47:42;6.70;99.90
52609;DHT22;38503;48.544;12.142;2022-11-28T11:50:17;6.20;99.90
52609;DHT22;38503;48.544;12.142;2022-11-28T11:53:03;6.20;99.90
52609;DHT22;38503;48.544;12.142;2022-11-28T11:55:33;6.50;99.90
52609;DHT22;38503;48.544;12.142;2022-11-28T11:58:03;6.60;99.90
52609;DHT22;38503;48.544;12.142;2022-11-28T12:00:39;6.80;99.90
52609;DHT22;38503;48.544;12.142;2022-11-28T12:06:28;6.80;99.90
52609;DHT22;38503;48.544;12.142;2022-11-28T12:11:43;6.80;99.90
52609;DHT22;38503;48.544;12.142;2022-11-28T12:14:33;6.70;99.90
52609;DHT22;38503;48.544;12.142;2022-11-28T12:26:09;6.00;99.90
52609;DHT22;38503;48.544;12.142;2022-11-28T12:34:35;6.30;99.90
52609;DHT22;38503;48.544;12.142;2022-11-28T12:40:12;6.20;99.90
52609;DHT22;38503;48.544;12.142;2022-11-28T12:48:41;5.90;99.90
52609;DHT22;38503;48.544;12.142;2022-11-28T12:54:35;6.10;99.90
52609;DHT22;38503;48.544;12.142;2022-11-28T13:05:14;5.90;99.90
52609;DHT22;38503;48.544;12.142;2022-11-28T13:10:41;5.80;99.90
52609;DHT22;38503;48.544;12.142;2022-11-28T13:15:52;5.80;99.90
52609;DHT22;38503;48.544;12.142;2022-11-28T13:18:56;5.70;99.90
52609;DHT22;38503;48.544;12.142;2022-11-28T13:21:41;5.50;99.90
52609;DHT22;38503;48.544;12.142;2022-11-28T13:30:15;5.20;99.90
52609;DHT22;38503;48.544;12.142;2022-11-28T13:35:38;5.10;99.90
52609;DHT22;38503;48.544;12.142;2022-11-28T13:38:14;5.20;99.90
52609;DHT22;38503;48.544;12.142;2022-11-28T13:41:30;5.20;99.90
52609;DHT22;38503;48.544;12.142;2022-11-28T13:44:24;5.20;99.90
52609;DHT22;38503;48.544;12.142;2022-11-28T13:46:53;5.20;99.90
52609;DHT22;38503;48.544;12.142;2022-11-28T13:49:25;5.20;99.90
52609;DHT22;38503;48.544;12.142;2022-11-28T13:52:30;5.30;99.90
52609;DHT22;38503;48.544;12.142;2022-11-28T13:54:58;5.20;99.90
52609;DHT22;38503;48.544;12.142;2022-11-28T13:57:42;5.20;99.90
52609;DHT22;38503;48.544;12.142;2022-11-28T14:00:21;5.30;99.90
52609;DHT22;38503;48.544;12.142;2022-11-28T14:02:53;5.30;99.90
52609;DHT22;38503;48.544;12.142;2022-11-28T14:05:34;5.30;99.90
52609;DHT22;38503;48.544;12.142;2022-11-28T14:08:03;5.20;99.90
52609;DHT22;38503;48.544;12.142;2022-11-28T14:14:06;5.10;99.90
52609;DHT22;38503;48.544;12.142;2022-11-28T14:16:49;5.10;99.90
52609;DHT22;38503;48.544;12.142;2022-11-28T14:27:31;5.00;99.90
52609;DHT22;38503;48.544;12.142;2022-11-28T14:29:59;5.00;99.90
52609;DHT22;38503;48.544;12.142;2022-11-28T14:32:37;4.90;99.90
52609;DHT22;38503;48.544;12.142;2022-11-28T14:35:16;4.90;99.90
52609;DHT22;38503;48.544;12.142;2022-11-28T14:37:50;4.90;99.90
52609;DHT22;38503;48.544;12.142;2022-11-28T14:43:34;4.90;99.90
52609;DHT22;38503;48.544;12.142;2022-11-28T14:46:29;4.90;99.90
52609;DHT22;38503;48.544;12.142;2022-11-28T14:54:38;4.80;99.90
52609;DHT22;38503;48.544;12.142;2022-11-28T14:57:22;4.80;99.90
52609;DHT22;38503;48.544;12.142;2022-11-28T14:59:50;4.80;99.90
52609;DHT22;38503;48.544;12.142;2022-11-28T15:05:23;4.80;99.90
52609;DHT22;38503;48.544;12.142;2022-11-28T15:11:13;4.70;99.90
52609;DHT22;38503;48.544;12.142;2022-11-28T15:14:12;4.70;99.90
52609;DHT22;38503;48.544;12.142;2022-11-28T15:16:43;4.60;99.90
52609;DHT22;38503;48.544;12.142;2022-11-28T15:21:48;4.60;99.90
52609;DHT22;38503;48.544;12.142;2022-11-28T15:24:37;4.70;99.90
52609;DHT22;38503;48.544;12.142;2022-11-28T15:29:34;4.70;99.90
52609;DHT22;38503;48.544;12.142;2022-11-28T15:32:02;4.60;99.90
52609;DHT22;38503;48.544;12.142;2022-11-28T15:34:34;4.60;99.90
52609;DHT22;38503;48.544;12.142;2022-11-28T15:37:25;4.60;99.90
52609;DHT22;38503;48.544;12.142;2022-11-28T15:39:53;4.60;99.90
52609;DHT22;38503;48.544;12.142;2022-11-28T15:42:31;4.60;99.90
52609;DHT22;38503;48.544;12.142;2022-11-28T15:45:21;4.50;99.90
52609;DHT22;38503;48.544;12.142;2022-11-28T15:47:47;4.50;99.90
52609;DHT22;38503;48.544;12.142;2022-11-28T15:50:18;4.50;99.90
52609;DHT22;38503;48.544;12.142;2022-11-28T15:55:21;4.50;99.90
52609;DHT22;38503;48.544;12.142;2022-11-28T15:57:48;4.50;99.90
52609;DHT22;38503;48.544;12.142;2022-11-28T16:00:18;4.40;99.90
52609;DHT22;38503;48.544;12.142;2022-11-28T16:02:45;4.50;99.90
52609;DHT22;38503;48.544;12.142;2022-11-28T16:05:16;4.50;99.90
52609;DHT22;38503;48.544;12.142;2022-11-28T16:07:50;4.50;99.90
52609;DHT22;38503;48.544;12.142;2022-11-28T16:10:24;4.60;99.90
52609;DHT22;38503;48.544;12.142;2022-11-28T16:12:58;4.50;99.90
52609;DHT22;38503;48.544;12.142;2022-11-28T16:15:26;4.40;99.90
52609;DHT22;38503;48.544;12.142;2022-11-28T16:17:54;4.40;99.90
52609;DHT22;38503;48.544;12.142;2022-11-28T16:20:22;4.30;99.90
52609;DHT22;38503;48.544;12.142;2022-11-28T16:22:56;4.30;99.90
52609;DHT22;38503;48.544;12.142;2022-11-28T16:25:26;4.30;99.90
52609;DHT22;38503;48.544;12.142;2022-11-28T16:27:53;4.30;99.90
52609;DHT22;38503;48.544;12.142;2022-11-28T16:30:35;4.30;99.90
52609;DHT22;38503;48.544;12.142;2022-11-28T16:33:32;4.30;99.90
52609;DHT22;38503;48.544;12.142;2022-11-28T16:38:42;4.30;99.90
52609;DHT22;38503;48.544;12.142;2022-11-28T16:41:21;4.40;99.90
52609;DHT22;38503;48.544;12.142;2022-11-28T16:44:03;4.40;99.90
52609;DHT22;38503;48.544;12.142;2022-11-28T16:46:37;4.30;99.90
52609;DHT22;38503;48.544;12.142;2022-11-28T16:49:04;4.30;99.90
52609;DHT22;38503;48.544;12.142;2022-11-28T16:51:40;4.30;99.90
52609;DHT22;38503;48.544;12.142;2022-11-28T16:54:27;4.30;99.90
52609;DHT22;38503;48.544;12.142;2022-11-28T16:56:56;4.20;99.90
52609;DHT22;38503;48.544;12.142;2022-11-28T16:59:24;4.20;99.90
52609;DHT22;38503;48.544;12.142;2022-11-28T17:01:52;4.20;99.90
52609;DHT22;38503;48.544;12.142;2022-11-28T17:04:24;4.20;99.90
52609;DHT22;38503;48.544;12.142;2022-11-28T17:06:53;4.20;99.90
52609;DHT22;38503;48.544;12.142;2022-11-28T17:09:20;4.10;99.90
52609;DHT22;38503;48.544;12.142;2022-11-28T17:11:57;4.20;99.90
52609;DHT22;38503;48.544;12.142;2022-11-28T17:14:24;4.20;99.90
52609;DHT22;38503;48.544;12.142;2022-11-28T17:16:51;4.20;99.90
52609;DHT22;38503;48.544;12.142;2022-11-28T17:19:17;4.20;99.90
52609;DHT22;38503;48.544;12.142;2022-11-28T17:21:50;4.20;99.90
52609;DHT22;38503;48.544;12.142;2022-11-28T17:24:18;4.20;99.90
52609;DHT22;38503;48.544;12.142;2022-11-28T17:26:46;4.20;99.90
52609;DHT22;38503;48.544;12.142;2022-11-28T17:29:14;4.10;99.90
52609;DHT22;38503;48.544;12.142;2022-11-28T17:31:42;4.10;99.90
52609;DHT22;38503;48.544;12.142;2022-11-28T17:34:18;4.10;99.90
52609;DHT22;38503;48.544;12.142;2022-11-28T17:36:45;4.10;99.90
52609;DHT22;38503;48.544;12.142;2022-11-28T17:39:12;4.10;99.90
52609;DHT22;38503;48.544;12.142;2022-11-28T17:41:39;4.10;99.90
52609;DHT22;38503;48.544;12.142;2022-11-28T17:44:20;4.10;99.90
52609;DHT22;38503;48.544;12.142;2022-11-28T17:46:48;4.10;99.90
52609;DHT22;38503;48.544;12.142;2022-11-28T17:49:15;4.10;99.90
52609;DHT22;38503;48.544;12.142;2022-11-28T17:51:43;4.00;99.90
52609;DHT22;38503;48.544;12.142;2022-11-28T17:54:11;4.10;99.90
52609;DHT22;38503;48.544;12.142;2022-11-28T17:56:42;4.00;99.90
52609;DHT22;38503;48.544;12.142;2022-11-28T17:59:13;4.00;99.90
52609;DHT22;38503;48.544;12.142;2022-11-28T18:01:41;4.00;99.90
52609;DHT22;38503;48.544;12.142;2022-11-28T18:04:08;4.00;99.90
52609;DHT22;38503;48.544;12.142;2022-11-28T18:06:34;4.00;99.90
52609;DHT22;38503;48.544;12.142;2022-11-28T18:09:03;4.00;99.90
52609;DHT22;38503;48.544;12.142;2022-11-28T18:11:37;4.00;99.90
52609;DHT22;38503;48.544;12.142;2022-11-28T18:14:05;3.90;99.90
52609;DHT22;38503;48.544;12.142;2022-11-28T18:16:32;4.00;99.90
52609;DHT22;38503;48.544;12.142;2022-11-28T18:19:01;4.00;99.90
52609;DHT22;38503;48.544;12.142;2022-11-28T18:21:28;3.90;99.90
52609;DHT22;38503;48.544;12.142;2022-11-28T18:23:55;3.90;99.90
52609;DHT22;38503;48.544;12.142;2022-11-28T18:26:23;3.90;99.90
52609;DHT22;38503;48.544;12.142;2022-11-28T18:28:51;3.90;99.90
52609;DHT22;38503;48.544;12.142;2022-11-28T18:31:21;3.90;99.90
52609;DHT22;38503;48.544;12.142;2022-11-28T18:33:49;3.90;99.90
52609;DHT22;38503;48.544;12.142;2022-11-28T18:36:26;3.80;99.90
52609;DHT22;38503;48.544;12.142;2022-11-28T18:38:58;3.90;99.90
52609;DHT22;38503;48.544;12.142;2022-11-28T18:41:25;3.90;99.90
52609;DHT22;38503;48.544;12.142;2022-11-28T18:44:01;3.90;99.90
52609;DHT22;38503;48.544;12.142;2022-11-28T18:46:30;3.80;99.90
52609;DHT22;38503;48.544;12.142;2022-11-28T18:48:58;3.80;99.90
52609;DHT22;38503;48.544;12.142;2022-11-28T18:51:30;3.90;99.90
52609;DHT22;38503;48.544;12.142;2022-11-28T18:53:57;3.80;99.90
52609;DHT22;38503;48.544;12.142;2022-11-28T18:56:25;3.90;99.90
52609;DHT22;38503;48.544;12.142;2022-11-28T18:58:52;3.90;99.90
52609;DHT22;38503;48.544;12.142;2022-11-28T19:01:22;3.90;99.90
52609;DHT22;38503;48.544;12.142;2022-11-28T19:03:52;3.80;99.90
52609;DHT22;38503;48.544;12.142;2022-11-28T19:06:20;3.90;99.90
52609;DHT22;38503;48.544;12.142;2022-11-28T19:08:50;3.80;99.90
52609;DHT22;38503;48.544;12.142;2022-11-28T19:11:18;4.00;99.90